Time;durP1;ratioP1;P1;durP2;ratioP2;P2;SDS_P1;SDS_P2;PMS_P1;PMS_P2;Temp;Humidity;BMP_temperature;BMP_pressure;BME280_temperature;BME280_humidity;BME280_pressure;Samples;Min_cycle;Max_cycle;Signal;HPM_P1;HPM_P2
2021/01/06 00:01:55;;;;;;;4.72;1.60;;;11.80;99.90;;;;;;4720477;30;20084;-77
2021/01/06 00:04:21;;;;;;;9.20;2.00;;;11.70;99.90;;;;;;4731897;30;20035;-77
2021/01/06 00:06:47;;;;;;;8.50;2.00;;;11.70;99.90;;;;;;4731267;30;20060;-77
2021/01/06 00:09:14;;;;;;;3.78;1.50;;;11.70;99.90;;;;;;4731751;30;20112;-77
2021/01/06 00:11:41;;;;;;;13.05;3.50;;;11.70;99.90;;;;;;4726988;30;20439;-78
2021/01/06 00:14:14;;;;;;;7.50;1.63;;;11.70;99.90;;;;;;4731576;30;20032;-77
2021/01/06 00:16:41;;;;;;;6.70;1.80;;;11.80;99.90;;;;;;4731522;30;20047;-77
2021/01/06 00:19:07;;;;;;;6.22;1.60;;;11.80;99.90;;;;;;4731513;30;20036;-77
2021/01/06 00:21:37;;;;;;;22.42;2.22;;;11.80;99.90;;;;;;4730389;30;20036;-77
2021/01/06 00:24:04;;;;;;;5.38;1.83;;;11.80;99.90;;;;;;4731864;30;20037;-77
2021/01/06 00:26:35;;;;;;;4.72;1.50;;;11.80;99.90;;;;;;4731965;30;20059;-76
2021/01/06 00:29:01;;;;;;;8.77;1.02;;;11.80;99.90;;;;;;4732012;30;20118;-77
2021/01/06 00:31:27;;;;;;;12.27;2.35;;;11.80;99.90;;;;;;4729585;30;20045;-76
2021/01/06 00:33:53;;;;;;;7.88;1.90;;;11.80;99.90;;;;;;4730429;30;20115;-77
2021/01/06 00:36:21;;;;;;;8.40;2.08;;;11.80;99.90;;;;;;4730979;30;20102;-76
2021/01/06 00:38:50;;;;;;;8.02;1.60;;;11.80;99.90;;;;;;4728765;30;20495;-76
2021/01/06 00:41:31;;;;;;;8.70;1.42;;;11.90;99.90;;;;;;4730819;30;20139;-77
2021/01/06 00:43:58;;;;;;;5.25;1.08;;;11.90;99.90;;;;;;4721414;30;20044;-77
2021/01/06 00:46:32;;;;;;;16.15;2.45;;;11.90;99.90;;;;;;4720869;30;20081;-84
2021/01/06 00:49:00;;;;;;;11.05;2.03;;;11.90;99.90;;;;;;4722972;30;20090;-77
2021/01/06 00:51:28;;;;;;;5.55;1.25;;;11.90;99.90;;;;;;4731164;30;20081;-76
2021/01/06 00:53:54;;;;;;;8.70;1.48;;;11.90;99.90;;;;;;4728581;30;20437;-77
2021/01/06 00:56:32;;;;;;;7.72;1.35;;;12.00;99.90;;;;;;4729390;30;20044;-78
2021/01/06 00:58:59;;;;;;;21.33;2.53;;;12.00;99.90;;;;;;4730159;30;20041;-77
2021/01/06 01:01:27;;;;;;;16.92;1.63;;;12.00;99.90;;;;;;4729236;30;20032;-76
2021/01/06 01:03:57;;;;;;;12.43;1.88;;;12.10;99.90;;;;;;4728999;30;20113;-76
2021/01/06 01:06:27;;;;;;;8.45;2.10;;;12.00;99.90;;;;;;4730869;30;20112;-77
2021/01/06 01:08:55;;;;;;;6.47;1.65;;;12.00;99.90;;;;;;4731714;30;20475;-76
2021/01/06 01:11:22;;;;;;;9.10;1.75;;;12.00;99.90;;;;;;4728859;30;20127;-76
2021/01/06 01:13:52;;;;;;;11.80;2.50;;;12.10;99.90;;;;;;4729142;30;20180;-76
2021/01/06 01:16:21;;;;;;;11.43;1.50;;;12.00;99.90;;;;;;4730887;30;20571;-76
2021/01/06 01:18:47;;;;;;;7.82;1.45;;;12.00;99.90;;;;;;4731232;30;20038;-77
2021/01/06 01:21:21;;;;;;;13.95;2.45;;;12.10;99.90;;;;;;4730437;30;20033;-76
2021/01/06 01:23:47;;;;;;;8.63;1.70;;;12.10;99.90;;;;;;4729511;30;20464;-76
2021/01/06 01:26:14;;;;;;;7.70;1.95;;;12.10;99.90;;;;;;4730349;30;20367;-77
2021/01/06 01:28:41;;;;;;;12.20;1.90;;;12.10;99.90;;;;;;4729133;30;20076;-77
2021/01/06 01:31:07;;;;;;;8.93;1.95;;;12.10;99.90;;;;;;4729869;30;20041;-77
2021/01/06 01:33:33;;;;;;;4.70;1.60;;;12.00;99.90;;;;;;4730681;30;20443;-77
2021/01/06 01:36:00;;;;;;;7.75;2.83;;;12.10;99.90;;;;;;4730580;30;20044;-77
2021/01/06 01:38:28;;;;;;;14.05;1.92;;;12.10;99.90;;;;;;4729332;30;20569;-76
2021/01/06 01:41:01;;;;;;;6.80;2.22;;;12.10;99.90;;;;;;4730466;30;20041;-76
2021/01/06 01:43:28;;;;;;;14.70;2.17;;;12.10;99.90;;;;;;4730019;30;20479;-77
2021/01/06 01:45:54;;;;;;;7.00;1.70;;;12.10;99.90;;;;;;4723602;30;20500;-76
2021/01/06 01:48:46;;;;;;;10.05;2.20;;;12.10;99.90;;;;;;4730265;30;20059;-77
2021/01/06 01:51:18;;;;;;;10.48;2.28;;;12.10;99.90;;;;;;4729849;30;20498;-76
2021/01/06 01:54:03;;;;;;;6.88;1.88;;;12.20;99.90;;;;;;4730352;30;20094;-77
2021/01/06 01:56:34;;;;;;;6.40;2.30;;;12.20;99.90;;;;;;4729578;30;20066;-77
2021/01/06 01:59:01;;;;;;;7.38;1.58;;;12.20;99.90;;;;;;4730190;30;20044;-81
2021/01/06 02:01:43;;;;;;;15.38;1.90;;;12.20;99.90;;;;;;4735516;30;20071;-76
2021/01/06 02:04:42;;;;;;;9.00;1.60;;;12.20;99.90;;;;;;4728513;30;20071;-77
2021/01/06 02:07:27;;;;;;;6.05;1.73;;;12.20;99.90;;;;;;4724344;30;20064;-76
2021/01/06 02:10:23;;;;;;;8.05;2.20;;;12.20;99.90;;;;;;4728404;30;20471;-77
2021/01/06 02:13:21;;;;;;;6.78;2.10;;;12.20;99.90;;;;;;4714663;30;20032;-77
2021/01/06 02:15:58;;;;;;;9.20;1.60;;;12.20;99.90;;;;;;4725647;30;21639;-77
2021/01/06 02:18:24;;;;;;;7.85;2.05;;;12.20;99.90;;;;;;4729433;30;20051;-77
2021/01/06 02:21:18;;;;;;;6.25;1.98;;;12.20;99.90;;;;;;4727696;30;20036;-78
2021/01/06 02:23:46;;;;;;;;;;;12.20;99.90;;;;;;4731611;30;20067;-77
2021/01/06 02:26:12;;;;;;;4.47;1.50;;;12.20;99.90;;;;;;4733642;30;19945;-78
2021/01/06 02:28:38;;;;;;;7.55;1.85;;;12.20;99.90;;;;;;4727151;30;20581;-79
2021/01/06 02:31:05;;;;;;;8.02;1.88;;;12.20;99.90;;;;;;4731270;30;20029;-77
2021/01/06 02:33:33;;;;;;;9.10;1.50;;;12.20;99.90;;;;;;4730265;30;20082;-79
2021/01/06 02:35:59;;;;;;;9.98;2.25;;;12.20;99.90;;;;;;4732766;30;20040;-77
2021/01/06 02:38:26;;;;;;;13.52;1.95;;;12.20;99.90;;;;;;4733337;30;20044;-77
2021/01/06 02:40:54;;;;;;;11.25;2.45;;;12.20;99.90;;;;;;4731897;30;20110;-77
2021/01/06 02:43:22;;;;;;;10.35;1.50;;;12.20;99.90;;;;;;4733728;30;20503;-77
2021/01/06 02:45:49;;;;;;;11.38;3.15;;;12.30;99.90;;;;;;4732858;30;20050;-77
2021/01/06 02:48:16;;;;;;;8.60;1.75;;;12.20;99.90;;;;;;4732937;30;20111;-77
2021/01/06 02:50:45;;;;;;;10.90;2.20;;;12.20;99.90;;;;;;4733417;30;20043;-77
2021/01/06 02:53:16;;;;;;;14.38;2.20;;;12.20;99.90;;;;;;4731906;30;20036;-77
2021/01/06 02:55:48;;;;;;;20.27;3.50;;;12.20;99.90;;;;;;4731290;30;20044;-77
2021/01/06 02:58:17;;;;;;;13.18;1.88;;;12.30;99.90;;;;;;4732141;30;20502;-77
2021/01/06 03:00:43;;;;;;;12.27;2.25;;;12.30;99.90;;;;;;4729043;30;20041;-78
2021/01/06 03:03:12;;;;;;;13.10;3.03;;;12.30;99.90;;;;;;4730060;30;20495;-78
2021/01/06 03:05:45;;;;;;;7.53;2.13;;;12.30;99.90;;;;;;4733223;30;20024;-78
2021/01/06 03:08:14;;;;;;;7.65;2.05;;;12.30;99.90;;;;;;4723198;30;20041;-78
2021/01/06 03:10:40;;;;;;;9.43;2.67;;;12.40;99.90;;;;;;4717244;30;20362;-78
2021/01/06 03:13:07;;;;;;;12.80;3.10;;;12.40;99.90;;;;;;4733098;30;20510;-78
2021/01/06 03:15:33;;;;;;;10.35;2.30;;;12.50;99.90;;;;;;4750225;30;20036;-78
2021/01/06 03:17:59;;;;;;;10.07;2.33;;;12.40;99.90;;;;;;4734427;30;20045;-78
2021/01/06 03:20:42;;;;;;;11.57;1.98;;;12.40;99.90;;;;;;4734595;30;20067;-78
2021/01/06 03:23:11;;;;;;;9.48;2.65;;;12.40;99.90;;;;;;4735211;30;20071;-78
2021/01/06 03:25:40;;;;;;;12.75;3.55;;;12.30;99.90;;;;;;4741486;30;20066;-78
2021/01/06 03:28:06;;;;;;;8.65;1.80;;;12.40;99.90;;;;;;4719034;30;20060;-78
2021/01/06 03:30:34;;;;;;;11.38;2.15;;;12.40;99.90;;;;;;4716919;30;20040;-78
2021/01/06 03:33:32;;;;;;;7.78;2.30;;;12.40;99.90;;;;;;4720212;30;20434;-78
2021/01/06 03:36:03;;;;;;;6.70;1.92;;;12.40;99.90;;;;;;4750820;30;20033;-78
2021/01/06 03:38:36;;;;;;;9.85;2.55;;;12.40;99.90;;;;;;4734323;30;20040;-78
2021/01/06 03:41:06;;;;;;;12.43;2.78;;;12.30;99.90;;;;;;4734094;30;20069;-78
2021/01/06 03:43:41;;;;;;;14.30;2.58;;;12.30;99.90;;;;;;4734834;30;20387;-78
2021/01/06 03:46:34;;;;;;;15.43;2.60;;;12.30;99.90;;;;;;4739676;30;20024;-78
2021/01/06 03:49:07;;;;;;;17.10;4.07;;;12.20;99.90;;;;;;4716328;30;20116;-78
2021/01/06 03:51:42;;;;;;;11.82;2.47;;;12.30;99.90;;;;;;4716298;30;20043;-78
2021/01/06 03:54:44;;;;;;;19.70;2.50;;;12.20;99.90;;;;;;4727551;30;20032;-78
2021/01/06 03:57:11;;;;;;;10.35;2.45;;;12.20;99.90;;;;;;4742239;30;20141;-78
2021/01/06 03:59:40;;;;;;;16.13;2.75;;;12.30;99.90;;;;;;4732396;30;20052;-78
2021/01/06 04:02:52;;;;;;;12.73;2.45;;;12.30;99.90;;;;;;4733680;30;20399;-78
2021/01/06 04:05:22;;;;;;;9.65;2.30;;;12.20;99.90;;;;;;4707602;30;20512;-79
2021/01/06 04:07:56;;;;;;;5.75;1.90;;;12.20;99.90;;;;;;4709619;30;20121;-78
2021/01/06 04:10:40;;;;;;;11.77;2.50;;;12.20;99.90;;;;;;4716645;30;20124;-78
2021/01/06 04:13:06;;;;;;;13.93;2.00;;;12.20;99.90;;;;;;4733379;30;20124;-78
2021/01/06 04:15:32;;;;;;;14.55;2.60;;;12.20;99.90;;;;;;4743643;30;20038;-77
2021/01/06 04:17:58;;;;;;;4.70;1.77;;;12.20;99.90;;;;;;4746635;30;20064;-78
2021/01/06 04:20:36;;;;;;;13.57;2.67;;;12.30;99.90;;;;;;4715966;30;20029;-78
2021/01/06 04:23:09;;;;;;;9.23;2.88;;;12.30;99.90;;;;;;4715833;30;20116;-78
2021/01/06 04:25:44;;;;;;;5.68;1.63;;;12.30;99.90;;;;;;4733272;30;20032;-77
2021/01/06 04:28:16;;;;;;;8.68;1.95;;;12.30;99.90;;;;;;4748266;30;20059;-79
2021/01/06 04:30:49;;;;;;;14.52;3.03;;;12.30;99.90;;;;;;4733288;30;20040;-78
2021/01/06 04:33:23;;;;;;;14.00;3.08;;;12.30;99.90;;;;;;4732971;30;20087;-78
2021/01/06 04:35:50;;;;;;;12.05;2.42;;;12.30;99.90;;;;;;4740574;30;20036;-78
2021/01/06 04:38:18;;;;;;;17.98;2.85;;;12.40;99.90;;;;;;4750819;30;20101;-78
2021/01/06 04:40:47;;;;;;;14.18;2.17;;;12.40;99.90;;;;;;4720878;30;20040;-78
2021/01/06 04:43:22;;;;;;;15.50;2.40;;;12.40;99.90;;;;;;4715417;30;20110;-78
2021/01/06 04:46:19;;;;;;;13.18;2.60;;;12.40;99.90;;;;;;4721290;30;20108;-78
2021/01/06 04:49:03;;;;;;;17.33;3.50;;;12.30;99.90;;;;;;4741525;30;20119;-78
2021/01/06 04:52:03;;;;;;;15.35;3.83;;;12.30;99.90;;;;;;4732821;30;20148;-78
2021/01/06 04:54:35;;;;;;;15.02;4.95;;;12.30;99.90;;;;;;4732586;30;20075;-78
2021/01/06 04:57:11;;;;;;;14.80;3.30;;;12.20;99.90;;;;;;4743957;30;20528;-78
2021/01/06 05:00:00;;;;;;;11.73;2.33;;;12.20;99.90;;;;;;4745619;30;20055;-78
2021/01/06 05:02:29;;;;;;;7.88;2.38;;;12.10;99.90;;;;;;4732606;30;20556;-79
2021/01/06 05:05:20;;;;;;;14.15;3.55;;;12.10;99.90;;;;;;4723611;30;20038;-78
2021/01/06 05:08:26;;;;;;;29.83;3.50;;;12.10;99.90;;;;;;4729777;30;20108;-78
2021/01/06 05:11:07;;;;;;;10.88;2.78;;;12.10;99.90;;;;;;4732229;30;20095;-80
2021/01/06 05:13:43;;;;;;;12.95;2.70;;;12.10;99.90;;;;;;4732373;30;20037;-79
2021/01/06 05:16:37;;;;;;;14.13;2.83;;;12.10;99.90;;;;;;4732540;30;20067;-78
2021/01/06 05:19:06;;;;;;;8.07;3.25;;;12.10;99.90;;;;;;4748734;30;20036;-79
2021/01/06 05:21:33;;;;;;;22.20;6.20;;;12.20;99.90;;;;;;4725058;30;20434;-78
2021/01/06 05:24:08;;;;;;;34.50;10.88;;;12.20;99.90;;;;;;4717226;30;20037;-77
2021/01/06 05:26:35;;;;;;;27.13;9.43;;;12.20;99.90;;;;;;4716952;30;20403;-78
2021/01/06 05:29:01;;;;;;;22.67;8.70;;;12.20;99.90;;;;;;4749566;30;20046;-78
2021/01/06 05:31:28;;;;;;;32.95;9.82;;;12.20;99.90;;;;;;4749839;30;20043;-79
2021/01/06 05:33:54;;;;;;;24.52;8.13;;;12.20;99.90;;;;;;4742300;30;20056;-78
2021/01/06 05:36:29;;;;;;;26.08;8.70;;;12.30;99.90;;;;;;4721580;30;20076;-78
2021/01/06 05:39:00;;;;;;;18.70;4.75;;;12.20;99.90;;;;;;4732403;30;20033;-78
2021/01/06 05:41:26;;;;;;;19.42;4.05;;;12.30;99.90;;;;;;4730827;30;20044;-78
2021/01/06 05:43:54;;;;;;;20.73;4.55;;;12.20;99.90;;;;;;4731865;30;20036;-78
2021/01/06 05:46:31;;;;;;;17.95;4.32;;;12.20;99.90;;;;;;4729647;30;20033;-77
2021/01/06 05:49:27;;;;;;;13.68;3.67;;;12.20;99.90;;;;;;4725300;30;20032;-78
2021/01/06 05:52:00;;;;;;;9.77;2.63;;;12.20;99.90;;;;;;4714301;30;20033;-78
2021/01/06 05:54:41;;;;;;;16.48;5.10;;;12.20;99.90;;;;;;4714460;30;20099;-79
2021/01/06 05:57:14;;;;;;;8.25;2.22;;;12.20;99.90;;;;;;4723792;30;20391;-79
2021/01/06 06:00:00;;;;;;;11.75;2.85;;;12.20;99.90;;;;;;4746529;30;20048;-78
2021/01/06 06:02:40;;;;;;;13.38;2.58;;;12.20;99.90;;;;;;4748205;30;20047;-79
2021/01/06 06:05:32;;;;;;;9.88;1.90;;;12.20;99.90;;;;;;4749353;30;20074;-77
2021/01/06 06:08:07;;;;;;;7.60;1.90;;;12.30;99.90;;;;;;4733258;30;20139;-79
2021/01/06 06:10:53;;;;;;;11.45;2.53;;;12.30;99.90;;;;;;4748824;30;20035;-78
2021/01/06 06:13:44;;;;;;;8.48;2.35;;;12.30;99.90;;;;;;4749187;30;20062;-78
2021/01/06 06:16:40;;;;;;;12.05;2.42;;;12.30;99.90;;;;;;4749155;30;20033;-77
2021/01/06 06:19:43;;;;;;;10.07;2.58;;;12.30;99.90;;;;;;4727064;30;20038;-78
2021/01/06 06:22:28;;;;;;;12.00;2.40;;;12.30;99.90;;;;;;4749233;30;20440;-78
2021/01/06 06:25:16;;;;;;;11.30;2.33;;;12.20;99.90;;;;;;4749363;30;20036;-78
2021/01/06 06:28:10;;;;;;;16.48;1.90;;;12.20;99.90;;;;;;4742318;30;20033;-78
2021/01/06 06:30:36;;;;;;;;;;;12.20;99.90;;;;;;4746253;30;20127;-78
2021/01/06 06:33:13;;;;;;;10.53;2.93;;;12.20;99.90;;;;;;4749156;30;20025;-78
2021/01/06 06:35:46;;;;;;;8.40;1.98;;;12.20;99.90;;;;;;4748921;30;20478;-78
2021/01/06 06:38:12;;;;;;;9.80;2.03;;;12.30;99.90;;;;;;4741165;30;20091;-78
2021/01/06 06:41:00;;;;;;;12.18;2.22;;;12.20;99.90;;;;;;4743459;30;20033;-78
2021/01/06 06:43:43;;;;;;;17.05;2.83;;;12.30;99.90;;;;;;4749081;30;20126;-78
2021/01/06 06:46:30;;;;;;;12.20;2.50;;;12.30;99.90;;;;;;4749287;30;20089;-78
2021/01/06 06:49:14;;;;;;;26.40;2.88;;;12.30;99.90;;;;;;4739062;30;20039;-78
2021/01/06 06:51:50;;;;;;;8.18;2.33;;;12.30;99.90;;;;;;4748393;30;20036;-78
2021/01/06 06:54:38;;;;;;;8.85;2.05;;;12.30;99.90;;;;;;4748782;30;20386;-78
2021/01/06 06:57:13;;;;;;;8.95;2.35;;;12.40;99.90;;;;;;4747611;30;20102;-78
2021/01/06 06:59:54;;;;;;;14.02;2.08;;;12.40;99.90;;;;;;4736183;30;20100;-78
2021/01/06 07:02:20;;;;;;;15.52;2.30;;;12.40;99.90;;;;;;4748725;30;20086;-79
2021/01/06 07:04:58;;;;;;;10.30;2.80;;;12.40;99.90;;;;;;4748863;30;20107;-77
2021/01/06 07:07:36;;;;;;;9.10;2.97;;;12.40;99.90;;;;;;4748920;30;20083;-78
2021/01/06 07:10:25;;;;;;;18.27;2.42;;;12.40;99.90;;;;;;4737578;30;20090;-77
2021/01/06 07:13:00;;;;;;;6.45;2.10;;;12.40;99.90;;;;;;4719931;30;20057;-78
2021/01/06 07:15:32;;;;;;;5.68;1.33;;;12.40;99.90;;;;;;4716970;30;20076;-78
2021/01/06 07:17:58;;;;;;;8.88;2.70;;;12.50;99.90;;;;;;4732163;30;20449;-77
2021/01/06 07:20:40;;;;;;;15.18;2.35;;;12.40;99.90;;;;;;4734934;30;20039;-78
2021/01/06 07:23:19;;;;;;;11.25;2.58;;;12.40;99.90;;;;;;4751782;30;20112;-78
2021/01/06 07:25:59;;;;;;;9.65;2.30;;;12.50;99.90;;;;;;4751943;30;20063;-78
2021/01/06 07:28:25;;;;;;;9.68;2.50;;;12.50;99.90;;;;;;4733874;30;20383;-78
2021/01/06 07:30:52;;;;;;;18.95;2.78;;;12.60;99.90;;;;;;4734352;30;20077;-78
2021/01/06 07:33:36;;;;;;;11.63;2.13;;;12.60;99.90;;;;;;4751420;30;20033;-78
2021/01/06 07:36:15;;;;;;;16.73;3.13;;;12.70;99.90;;;;;;4751466;30;20036;-78
2021/01/06 07:38:45;;;;;;;9.80;2.50;;;12.80;99.90;;;;;;4734119;30;20505;-79
2021/01/06 07:41:11;;;;;;;24.98;3.28;;;12.80;99.90;;;;;;4734999;30;20110;-78
2021/01/06 07:43:44;;;;;;;6.72;1.70;;;12.90;99.90;;;;;;4751370;30;20113;-79
2021/01/06 07:46:19;;;;;;;14.85;2.45;;;13.00;99.90;;;;;;4751724;30;20569;-78
2021/01/06 07:49:28;;;;;;;7.82;2.45;;;13.00;99.90;;;;;;4737068;30;20072;-78
2021/01/06 07:52:05;;;;;;;13.55;4.68;;;13.10;99.90;;;;;;4720291;30;20053;-78
2021/01/06 07:54:57;;;;;;;13.27;4.80;;;13.20;99.90;;;;;;4744692;30;20042;-78
2021/01/06 07:57:47;;;;;;;11.82;3.47;;;13.30;99.90;;;;;;4733439;30;20403;-78
2021/01/06 08:00:17;;;;;;;8.63;2.38;;;13.30;99.90;;;;;;4732511;30;20048;-78
2021/01/06 08:02:58;;;;;;;10.13;3.58;;;13.30;99.90;;;;;;4739525;30;20035;-78
2021/01/06 08:05:29;;;;;;;15.63;3.20;;;13.40;99.90;;;;;;4746441;30;20036;-78
2021/01/06 08:08:06;;;;;;;11.95;2.22;;;13.40;99.90;;;;;;4721113;30;20032;-77
2021/01/06 08:10:34;;;;;;;10.43;2.28;;;13.40;99.90;;;;;;4716375;30;20116;-78
2021/01/06 08:13:19;;;;;;;10.98;3.20;;;13.40;99.90;;;;;;4724346;30;20493;-78
2021/01/06 08:15:50;;;;;;;9.05;2.53;;;13.40;99.90;;;;;;4740450;30;20050;-78
2021/01/06 08:18:47;;;;;;;16.38;3.65;;;13.40;99.90;;;;;;4733203;30;20479;-78
2021/01/06 08:21:23;;;;;;;14.00;3.47;;;13.50;99.90;;;;;;4732712;30;20041;-78
2021/01/06 08:23:54;;;;;;;11.57;2.70;;;13.50;99.90;;;;;;4730867;30;20506;-78
2021/01/06 08:26:27;;;;;;;8.45;2.45;;;13.60;99.90;;;;;;4727694;30;20025;-78
2021/01/06 08:29:25;;;;;;;13.43;2.22;;;13.60;99.90;;;;;;4721158;30;20032;-78
2021/01/06 08:31:59;;;;;;;15.05;3.50;;;13.70;99.90;;;;;;4715355;30;20059;-78
2021/01/06 08:34:29;;;;;;;;;;;13.70;99.90;;;;;;4731796;30;20382;-78
2021/01/06 08:37:05;;;;;;;17.27;3.25;;;13.70;99.90;;;;;;4731038;30;19957;-79
2021/01/06 08:39:35;;;;;;;10.18;3.33;;;13.80;99.90;;;;;;4731337;30;20024;-77
2021/01/06 08:42:40;;;;;;;17.05;4.63;;;13.80;99.90;;;;;;4729826;30;20032;-78
2021/01/06 08:45:19;;;;;;;12.32;4.45;;;13.90;99.90;;;;;;4732180;30;20479;-80
2021/01/06 08:47:45;;;;;;;13.45;4.97;;;14.00;99.90;;;;;;4730987;30;20140;-78
2021/01/06 08:50:31;;;;;;;13.85;3.97;;;14.10;99.90;;;;;;4731444;30;20044;-77
2021/01/06 08:53:06;;;;;;;10.45;2.70;;;14.20;99.90;;;;;;4731333;30;20177;-78
2021/01/06 08:55:41;;;;;;;10.65;2.75;;;14.30;99.90;;;;;;4725918;30;20040;-78
2021/01/06 08:58:10;;;;;;;23.38;4.40;;;14.30;99.90;;;;;;4728826;30;20075;-78
2021/01/06 09:00:38;;;;;;;13.27;3.22;;;14.40;99.90;;;;;;4728939;30;20049;-81
2021/01/06 09:03:12;;;;;;;11.32;2.72;;;14.50;99.90;;;;;;4731374;30;20028;-82
2021/01/06 09:05:57;;;;;;;14.02;2.67;;;14.60;99.90;;;;;;4728272;30;20233;-79
2021/01/06 09:08:32;;;;;;;12.30;3.58;;;14.60;99.90;;;;;;4729640;30;20566;-78
2021/01/06 09:11:01;;;;;;;12.32;2.42;;;14.60;99.90;;;;;;4730137;30;20306;-81
2021/01/06 09:13:40;;;;;;;13.20;2.75;;;14.70;99.90;;;;;;4731204;30;20522;-78
2021/01/06 09:16:12;;;;;;;5.85;1.95;;;14.70;99.90;;;;;;4730275;30;20394;-78
2021/01/06 09:18:53;;;;;;;13.05;3.00;;;14.70;99.90;;;;;;4730574;30;20060;-78
2021/01/06 09:21:29;;;;;;;6.45;1.75;;;14.80;99.70;;;;;;4712924;30;20081;-81
2021/01/06 09:24:24;;;;;;;13.70;2.42;;;14.90;99.70;;;;;;4727820;30;20515;-78
2021/01/06 09:27:02;;;;;;;15.43;2.83;;;14.90;98.60;;;;;;4724013;30;21615;-78
2021/01/06 09:29:29;;;;;;;10.05;2.45;;;15.10;97.70;;;;;;4719464;30;20040;-79
2021/01/06 09:31:58;;;;;;;13.15;2.30;;;15.10;98.20;;;;;;4719314;30;20029;-78
2021/01/06 09:34:30;;;;;;;14.63;2.05;;;15.30;97.20;;;;;;4713934;30;20395;-78
2021/01/06 09:36:57;;;;;;;13.02;1.83;;;15.20;96.90;;;;;;4744633;30;20036;-78
2021/01/06 09:39:30;;;;;;;7.18;2.22;;;15.20;97.30;;;;;;4748359;30;20524;-78
2021/01/06 09:41:59;;;;;;;12.73;2.25;;;15.20;97.80;;;;;;4730019;30;20036;-78
2021/01/06 09:44:28;;;;;;;13.75;2.78;;;15.30;97.50;;;;;;4733422;30;20051;-78
2021/01/06 09:47:12;;;;;;;10.15;2.00;;;15.30;97.90;;;;;;4731766;30;20032;-78
2021/01/06 09:50:02;;;;;;;7.55;1.92;;;15.20;97.10;;;;;;4729354;30;20037;-78
2021/01/06 09:52:35;;;;;;;9.43;2.05;;;15.20;97.20;;;;;;4730516;30;20041;-78
2021/01/06 09:55:04;;;;;;;4.35;1.98;;;15.20;97.10;;;;;;4729783;30;20036;-79
2021/01/06 09:57:32;;;;;;;6.25;2.05;;;15.30;97.30;;;;;;4726915;30;20072;-78
2021/01/06 10:00:31;;;;;;;17.20;2.38;;;15.40;96.50;;;;;;4731809;30;20076;-79
2021/01/06 10:02:59;;;;;;;8.20;2.65;;;15.50;96.70;;;;;;4722454;30;20040;-77
2021/01/06 10:05:47;;;;;;;5.45;1.55;;;15.50;97.10;;;;;;4719590;30;20028;-77
2021/01/06 10:08:30;;;;;;;4.63;2.00;;;15.40;96.30;;;;;;4718514;30;20105;-78
2021/01/06 10:11:07;;;;;;;13.73;3.20;;;15.40;96.50;;;;;;4729409;30;20029;-78
2021/01/06 10:13:58;;;;;;;8.43;1.90;;;15.40;96.80;;;;;;4729460;30;20043;-77
2021/01/06 10:16:42;;;;;;;11.40;2.25;;;15.40;97.20;;;;;;4729296;30;20029;-78
2021/01/06 10:19:10;;;;;;;;;;;15.50;98.20;;;;;;4730570;30;20400;-78
2021/01/06 10:22:07;;;;;;;6.60;2.15;;;15.70;98.40;;;;;;4733734;30;19925;-77
2021/01/06 10:25:13;;;;;;;4.93;1.00;;;15.90;98.90;;;;;;4729227;30;20040;-78
2021/01/06 10:27:52;;;;;;;18.77;2.55;;;15.90;98.80;;;;;;4729155;30;20040;-77
2021/01/06 10:30:20;;;;;;;7.72;2.03;;;16.10;99.00;;;;;;4729206;30;20106;-78
2021/01/06 10:32:49;;;;;;;9.02;1.45;;;16.40;98.90;;;;;;4728384;30;20021;-78
2021/01/06 10:35:28;;;;;;;4.45;1.48;;;16.70;99.40;;;;;;4730046;30;20487;-78
2021/01/06 10:37:54;;;;;;;6.25;2.10;;;16.70;99.10;;;;;;4729732;30;20041;-78
2021/01/06 10:40:36;;;;;;;7.78;1.88;;;16.60;99.40;;;;;;4728372;30;20033;-77
2021/01/06 10:43:40;;;;;;;8.68;1.83;;;16.50;99.90;;;;;;4728300;30;20036;-78
2021/01/06 10:46:38;;;;;;;9.88;1.83;;;16.30;99.90;;;;;;4730612;30;20033;-77
2021/01/06 10:49:11;;;;;;;8.55;1.92;;;16.00;99.90;;;;;;4723868;30;20052;-77
2021/01/06 10:51:59;;;;;;;11.85;1.98;;;15.90;99.90;;;;;;4733284;30;20040;-77
2021/01/06 10:54:52;;;;;;;5.18;1.30;;;15.70;99.90;;;;;;4731414;30;20071;-77
2021/01/06 10:57:38;;;;;;;12.48;2.65;;;15.60;99.90;;;;;;4733003;30;20044;-77
2021/01/06 11:00:07;;;;;;;9.52;2.83;;;15.60;99.90;;;;;;4732253;30;20059;-77
2021/01/06 11:03:12;;;;;;;6.85;1.80;;;15.60;99.90;;;;;;4732252;30;20495;-77
2021/01/06 11:05:53;;;;;;;6.88;2.25;;;15.60;99.90;;;;;;4730787;30;20533;-79
2021/01/06 11:08:32;;;;;;;7.80;1.48;;;15.50;99.90;;;;;;4732602;30;20078;-78
2021/01/06 11:11:21;;;;;;;8.18;1.50;;;15.40;99.90;;;;;;4732398;30;20025;-78
2021/01/06 11:14:20;;;;;;;5.32;1.63;;;15.10;99.90;;;;;;4730879;30;20043;-79
2021/01/06 11:16:55;;;;;;;5.57;1.70;;;15.00;99.90;;;;;;4733094;30;20043;-78
2021/01/06 11:19:40;;;;;;;7.75;1.30;;;14.90;99.90;;;;;;4732579;30;20039;-79
2021/01/06 11:22:21;;;;;;;8.57;2.47;;;14.80;99.90;;;;;;4732551;30;20028;-78
2021/01/06 11:24:57;;;;;;;6.13;1.70;;;14.80;99.90;;;;;;4731393;30;20601;-78
2021/01/06 11:27:47;;;;;;;7.13;1.30;;;14.70;99.90;;;;;;4731870;30;20044;-78
2021/01/06 11:30:25;;;;;;;6.47;1.75;;;14.70;99.90;;;;;;4732118;30;20032;-78
2021/01/06 11:33:20;;;;;;;5.63;1.77;;;14.60;99.90;;;;;;4732297;30;20047;-78
2021/01/06 11:36:07;;;;;;;6.10;1.10;;;14.60;99.90;;;;;;4728488;30;20116;-78
2021/01/06 11:38:42;;;;;;;2.42;0.75;;;14.70;99.90;;;;;;4731491;30;20036;-77
2021/01/06 11:41:17;;;;;;;7.72;1.23;;;14.60;99.90;;;;;;4732159;30;20032;-77
2021/01/06 11:44:05;;;;;;;5.30;2.33;;;14.70;99.90;;;;;;4723348;30;20036;-78
2021/01/06 11:46:34;;;;;;;3.78;1.23;;;14.60;99.90;;;;;;4730456;30;20120;-78
2021/01/06 11:49:21;;;;;;;8.13;1.38;;;14.60;99.90;;;;;;4731254;30;20037;-82
2021/01/06 11:52:25;;;;;;;3.83;1.75;;;14.70;99.90;;;;;;4729454;30;20040;-81
2021/01/06 11:54:57;;;;;;;10.57;2.00;;;14.70;99.90;;;;;;4734575;30;20549;-80
2021/01/06 11:57:40;;;;;;;4.32;1.35;;;14.70;99.90;;;;;;4731350;30;20044;-82
2021/01/06 12:00:28;;;;;;;5.95;1.13;;;14.70;99.90;;;;;;4730369;30;20040;-78
2021/01/06 12:03:18;;;;;;;4.35;2.17;;;14.70;99.90;;;;;;4731257;30;20114;-81
2021/01/06 12:06:21;;;;;;;6.95;1.95;;;14.70;99.90;;;;;;4721931;30;20037;-81
2021/01/06 12:09:25;;;;;;;5.28;1.27;;;14.70;99.90;;;;;;4705274;30;20040;-81
2021/01/06 12:11:55;;;;;;;5.50;1.42;;;14.70;99.90;;;;;;4722419;30;20049;-81
2021/01/06 12:14:28;;;;;;;8.75;1.70;;;14.70;99.90;;;;;;4728438;30;20032;-79
2021/01/06 12:17:13;;;;;;;2.50;1.30;;;14.70;99.90;;;;;;4730857;30;20384;-79
2021/01/06 12:20:03;;;;;;;4.32;1.73;;;14.60;99.90;;;;;;4730014;30;20056;-78
2021/01/06 12:22:31;;;;;;;9.02;3.45;;;14.60;99.90;;;;;;4730685;30;20140;-81
2021/01/06 12:25:00;;;;;;;8.60;4.55;;;14.60;99.90;;;;;;4732265;30;20036;-77
2021/01/06 12:27:42;;;;;;;6.65;3.20;;;14.60;99.90;;;;;;4734981;30;20538;-78
2021/01/06 12:30:11;;;;;;;7.53;4.00;;;14.70;99.90;;;;;;4731605;30;20423;-79
2021/01/06 12:32:54;;;;;;;13.88;7.25;;;14.80;99.90;;;;;;4731642;30;20034;-81
2021/01/06 12:35:20;;;;;;;14.35;6.35;;;14.80;99.90;;;;;;4730257;30;20087;-79
2021/01/06 12:38:08;;;;;;;8.90;2.85;;;14.80;99.90;;;;;;4729160;30;20052;-83
2021/01/06 12:40:56;;;;;;;24.40;6.88;;;14.80;99.90;;;;;;4729271;30;20116;-78
2021/01/06 12:43:28;;;;;;;7.35;4.38;;;14.80;99.90;;;;;;4708777;30;20044;-80
2021/01/06 12:46:15;;;;;;;8.73;4.45;;;14.90;99.90;;;;;;4739265;30;20116;-83
2021/01/06 12:49:00;;;;;;;7.68;3.45;;;15.00;99.90;;;;;;4716344;30;20415;-82
2021/01/06 12:51:32;;;;;;;7.10;2.88;;;14.90;99.90;;;;;;4730781;30;20040;-82
2021/01/06 12:54:10;;;;;;;7.40;3.13;;;14.70;99.90;;;;;;4729781;30;20079;-77
2021/01/06 12:56:44;;;;;;;6.32;2.40;;;14.70;99.90;;;;;;4731028;30;20083;-80
2021/01/06 12:59:16;;;;;;;8.57;1.77;;;14.70;99.90;;;;;;4731328;30;20110;-78
2021/01/06 13:01:58;;;;;;;13.85;3.00;;;14.60;99.90;;;;;;4738772;30;20537;-79
2021/01/06 13:04:45;;;;;;;7.72;2.67;;;14.60;99.90;;;;;;4730329;30;20116;-80
2021/01/06 13:07:23;;;;;;;7.63;1.65;;;14.50;99.90;;;;;;4729861;30;20132;-81
2021/01/06 13:09:49;;;;;;;7.28;1.77;;;14.50;99.90;;;;;;4728482;30;20041;-77
2021/01/06 13:12:45;;;;;;;16.33;2.95;;;14.40;99.90;;;;;;4730325;30;20039;-80
2021/01/06 13:15:29;;;;;;;8.13;1.73;;;14.40;99.90;;;;;;4714692;30;20545;-78
2021/01/06 13:18:07;;;;;;;7.40;1.60;;;14.50;99.90;;;;;;4712038;30;20686;-78
2021/01/06 13:20:36;;;;;;;11.65;2.20;;;14.50;99.90;;;;;;4728384;30;20045;-78
2021/01/06 13:23:28;;;;;;;6.90;1.67;;;14.50;99.90;;;;;;4728520;30;20529;-78
2021/01/06 13:26:22;;;;;;;7.63;1.70;;;14.50;99.90;;;;;;4728874;30;20035;-78
2021/01/06 13:28:51;;;;;;;;;;;14.50;99.90;;;;;;4737739;30;20228;-82
2021/01/06 13:31:50;;;;;;;9.07;1.67;;;14.50;99.90;;;;;;4729078;30;19914;-78
2021/01/06 13:34:50;;;;;;;4.10;2.05;;;14.60;99.90;;;;;;4730487;30;20079;-78